Hlavní strana
METAR-TAF:

METAR-TAF

Letiště :

Letiště Portorož

Portorož, Slovinsko

zeměpisná šířka: 45-31N, zeměpisná délka: 013-34E, výška: 95 m

Aktuální stav počasí

Zpráva byla vytvořena před 37 minutami, v 16:00 UTC
Severovýchodní vítr 3 kt, proměnlivý mezi severním a východním
Teplota 11°C
Vlhkost vzduchu 50%
Tlak 1027 hPa
Viditelnost 10 km a více
Žádná oblačnost pod 1500 m, nevyskytují se cumulonimby.

METAR: LJPZ 161600Z 05003KT 010V100 CAVOK 11/01 Q1027

Čas: 17:37 (16:37 UTC)

Předpověď počasí

Zpráva byla vytvořena před 2 hodinami a 37 minutami, v 14:00 UTC
Předpověď platná od 16 v 15 UTC do 16 v 24 UTC
Východoseverovýchodní vítr 5 kt
Viditelnost 10 km a více
Žádná oblačnost pod 1500 m, nevyskytují se cumulonimby.
Dočasný
od 16 v 15 UTC do 16 v 24 UTC
Východoseverovýchodní vítr 10 kt
Skoro jasno ve výšce 5000 ft

TAF: LJPZ 161400Z 1615/1624 06005KT CAVOK TEMPO 1615/1624 06010KT FEW050

Stav a předpovědi počasí z více než 4 000 letišť (zprávy METAR a TAF).

Červené a žluté tečky na mapě představují dostupné meteorologické stanice.

Když kurzor umístíte na tečku, zobrazí se název stanice.

Pak kliknutím zobrazíte stav a předpověď počasí.

Chcete-li změnit mapu, kliknutím na zelené tlačítko se znaménkem +mapu přiblížíte, kliknutím na zelené tlačítko se znaménkem – mapu oddálíte a kliknutím na zelené šipky přejdete na sousední mapy.


METAR-TAF: